sensor_id;sensor_type;location;lat;lon;timestamp;P1;durP1;ratioP1;P2;durP2;ratioP2
36963;SDS011;22878;48.616;35.326;2022-08-19T00:01:52;28.07;;;14.78;;
36963;SDS011;22878;48.616;35.326;2022-08-19T00:04:19;31.20;;;16.32;;
36963;SDS011;22878;48.616;35.326;2022-08-19T00:06:47;35.13;;;16.87;;
36963;SDS011;22878;48.616;35.326;2022-08-19T00:09:14;28.77;;;15.65;;
36963;SDS011;22878;48.616;35.326;2022-08-19T00:11:42;36.42;;;15.72;;
36963;SDS011;22878;48.616;35.326;2022-08-19T00:14:09;34.08;;;16.05;;
36963;SDS011;22878;48.616;35.326;2022-08-19T00:16:37;32.28;;;16.20;;
36963;SDS011;22878;48.616;35.326;2022-08-19T00:19:03;32.67;;;16.32;;
36963;SDS011;22878;48.616;35.326;2022-08-19T00:21:30;35.78;;;16.55;;
36963;SDS011;22878;48.616;35.326;2022-08-19T00:23:56;34.03;;;17.23;;
36963;SDS011;22878;48.616;35.326;2022-08-19T00:26:26;33.35;;;17.10;;
36963;SDS011;22878;48.616;35.326;2022-08-19T00:28:52;31.73;;;16.25;;
36963;SDS011;22878;48.616;35.326;2022-08-19T00:31:18;33.50;;;17.17;;
36963;SDS011;22878;48.616;35.326;2022-08-19T00:33:44;32.25;;;17.37;;
36963;SDS011;22878;48.616;35.326;2022-08-19T00:36:10;33.38;;;17.40;;
36963;SDS011;22878;48.616;35.326;2022-08-19T00:38:37;34.05;;;16.37;;
36963;SDS011;22878;48.616;35.326;2022-08-19T00:41:05;32.65;;;16.75;;
36963;SDS011;22878;48.616;35.326;2022-08-19T00:43:32;34.83;;;16.55;;
36963;SDS011;22878;48.616;35.326;2022-08-19T00:45:58;35.83;;;16.87;;
36963;SDS011;22878;48.616;35.326;2022-08-19T00:48:24;30.43;;;15.45;;
36963;SDS011;22878;48.616;35.326;2022-08-19T00:50:50;35.58;;;16.85;;
36963;SDS011;22878;48.616;35.326;2022-08-19T00:53:19;30.05;;;15.83;;
36963;SDS011;22878;48.616;35.326;2022-08-19T00:55:46;31.37;;;15.85;;
36963;SDS011;22878;48.616;35.326;2022-08-19T00:58:13;36.25;;;16.55;;
36963;SDS011;22878;48.616;35.326;2022-08-19T01:00:42;33.58;;;16.07;;
36963;SDS011;22878;48.616;35.326;2022-08-19T01:03:09;35.43;;;15.40;;
36963;SDS011;22878;48.616;35.326;2022-08-19T01:05:37;32.42;;;16.02;;
36963;SDS011;22878;48.616;35.326;2022-08-19T01:08:05;32.70;;;16.50;;
36963;SDS011;22878;48.616;35.326;2022-08-19T01:10:33;27.52;;;15.43;;
36963;SDS011;22878;48.616;35.326;2022-08-19T01:13:01;29.87;;;16.90;;
36963;SDS011;22878;48.616;35.326;2022-08-19T01:15:30;32.93;;;17.30;;
36963;SDS011;22878;48.616;35.326;2022-08-19T01:17:59;35.20;;;17.00;;
36963;SDS011;22878;48.616;35.326;2022-08-19T01:20:26;30.92;;;16.75;;
36963;SDS011;22878;48.616;35.326;2022-08-19T01:22:53;34.90;;;16.57;;
36963;SDS011;22878;48.616;35.326;2022-08-19T01:25:22;34.70;;;17.07;;
36963;SDS011;22878;48.616;35.326;2022-08-19T01:27:51;35.05;;;17.10;;
36963;SDS011;22878;48.616;35.326;2022-08-19T01:32:47;32.20;;;16.35;;
36963;SDS011;22878;48.616;35.326;2022-08-19T01:35:14;32.35;;;16.52;;
36963;SDS011;22878;48.616;35.326;2022-08-19T01:40:12;37.98;;;18.12;;
36963;SDS011;22878;48.616;35.326;2022-08-19T01:42:38;37.88;;;18.50;;
36963;SDS011;22878;48.616;35.326;2022-08-19T01:45:05;39.55;;;18.48;;
36963;SDS011;22878;48.616;35.326;2022-08-19T01:47:33;35.92;;;16.70;;
36963;SDS011;22878;48.616;35.326;2022-08-19T01:50:01;33.48;;;17.82;;
36963;SDS011;22878;48.616;35.326;2022-08-19T01:52:27;34.92;;;17.77;;
36963;SDS011;22878;48.616;35.326;2022-08-19T01:54:53;33.18;;;17.20;;
36963;SDS011;22878;48.616;35.326;2022-08-19T01:57:18;28.15;;;16.02;;
36963;SDS011;22878;48.616;35.326;2022-08-19T01:59:44;31.15;;;17.32;;
36963;SDS011;22878;48.616;35.326;2022-08-19T02:02:10;36.35;;;17.82;;
36963;SDS011;22878;48.616;35.326;2022-08-19T02:04:37;36.75;;;18.15;;
36963;SDS011;22878;48.616;35.326;2022-08-19T02:07:05;33.28;;;16.70;;
36963;SDS011;22878;48.616;35.326;2022-08-19T02:09:32;34.23;;;17.05;;
36963;SDS011;22878;48.616;35.326;2022-08-19T02:11:58;34.67;;;18.05;;
36963;SDS011;22878;48.616;35.326;2022-08-19T02:14:24;35.28;;;18.20;;
36963;SDS011;22878;48.616;35.326;2022-08-19T02:16:50;33.15;;;18.50;;
36963;SDS011;22878;48.616;35.326;2022-08-19T02:19:16;40.95;;;19.00;;
36963;SDS011;22878;48.616;35.326;2022-08-19T02:21:41;42.58;;;18.87;;
36963;SDS011;22878;48.616;35.326;2022-08-19T02:24:08;35.83;;;17.80;;
36963;SDS011;22878;48.616;35.326;2022-08-19T02:26:34;32.75;;;17.17;;
36963;SDS011;22878;48.616;35.326;2022-08-19T02:29:00;32.25;;;17.92;;
36963;SDS011;22878;48.616;35.326;2022-08-19T02:31:26;31.68;;;17.40;;
36963;SDS011;22878;48.616;35.326;2022-08-19T02:33:55;30.88;;;16.37;;
36963;SDS011;22878;48.616;35.326;2022-08-19T02:36:21;34.05;;;16.70;;
36963;SDS011;22878;48.616;35.326;2022-08-19T02:38:47;30.97;;;15.68;;
36963;SDS011;22878;48.616;35.326;2022-08-19T02:41:15;30.23;;;16.27;;
36963;SDS011;22878;48.616;35.326;2022-08-19T02:43:42;33.15;;;17.00;;
36963;SDS011;22878;48.616;35.326;2022-08-19T02:46:13;32.63;;;16.02;;
36963;SDS011;22878;48.616;35.326;2022-08-19T02:48:40;33.78;;;16.55;;
36963;SDS011;22878;48.616;35.326;2022-08-19T02:51:05;35.10;;;17.42;;
36963;SDS011;22878;48.616;35.326;2022-08-19T02:53:31;33.67;;;16.67;;
36963;SDS011;22878;48.616;35.326;2022-08-19T02:55:57;29.70;;;15.63;;
36963;SDS011;22878;48.616;35.326;2022-08-19T02:58:23;37.48;;;16.77;;
36963;SDS011;22878;48.616;35.326;2022-08-19T03:00:53;33.33;;;16.32;;
36963;SDS011;22878;48.616;35.326;2022-08-19T03:03:19;36.63;;;16.57;;
36963;SDS011;22878;48.616;35.326;2022-08-19T03:05:45;37.40;;;15.95;;
36963;SDS011;22878;48.616;35.326;2022-08-19T03:08:12;34.13;;;15.78;;
36963;SDS011;22878;48.616;35.326;2022-08-19T03:10:41;29.30;;;14.93;;
36963;SDS011;22878;48.616;35.326;2022-08-19T03:13:09;33.20;;;16.35;;
36963;SDS011;22878;48.616;35.326;2022-08-19T03:18:05;30.70;;;15.03;;
36963;SDS011;22878;48.616;35.326;2022-08-19T03:20:31;30.23;;;15.72;;
36963;SDS011;22878;48.616;35.326;2022-08-19T03:22:58;36.30;;;15.45;;
36963;SDS011;22878;48.616;35.326;2022-08-19T03:25:23;34.00;;;16.02;;
36963;SDS011;22878;48.616;35.326;2022-08-19T03:27:49;30.15;;;15.23;;
36963;SDS011;22878;48.616;35.326;2022-08-19T03:30:15;36.30;;;16.05;;
36963;SDS011;22878;48.616;35.326;2022-08-19T03:32:41;34.25;;;15.45;;
36963;SDS011;22878;48.616;35.326;2022-08-19T03:35:07;29.05;;;15.23;;
36963;SDS011;22878;48.616;35.326;2022-08-19T03:37:32;34.85;;;15.30;;
36963;SDS011;22878;48.616;35.326;2022-08-19T03:39:58;35.83;;;16.32;;
36963;SDS011;22878;48.616;35.326;2022-08-19T03:42:24;36.65;;;17.10;;
36963;SDS011;22878;48.616;35.326;2022-08-19T03:44:51;40.90;;;17.70;;
36963;SDS011;22878;48.616;35.326;2022-08-19T03:47:17;37.17;;;17.95;;
36963;SDS011;22878;48.616;35.326;2022-08-19T03:49:43;34.38;;;16.80;;
36963;SDS011;22878;48.616;35.326;2022-08-19T03:52:10;33.78;;;17.00;;
36963;SDS011;22878;48.616;35.326;2022-08-19T03:54:36;29.92;;;16.10;;
36963;SDS011;22878;48.616;35.326;2022-08-19T03:57:03;35.00;;;16.25;;
36963;SDS011;22878;48.616;35.326;2022-08-19T03:59:31;32.08;;;16.37;;
36963;SDS011;22878;48.616;35.326;2022-08-19T04:01:59;33.70;;;15.15;;
36963;SDS011;22878;48.616;35.326;2022-08-19T04:04:26;26.12;;;14.80;;
36963;SDS011;22878;48.616;35.326;2022-08-19T04:06:52;28.32;;;14.70;;
36963;SDS011;22878;48.616;35.326;2022-08-19T04:09:19;22.58;;;13.65;;
36963;SDS011;22878;48.616;35.326;2022-08-19T04:11:50;24.32;;;14.18;;
36963;SDS011;22878;48.616;35.326;2022-08-19T04:14:19;25.17;;;13.90;;
36963;SDS011;22878;48.616;35.326;2022-08-19T04:16:46;24.43;;;14.05;;
36963;SDS011;22878;48.616;35.326;2022-08-19T04:19:13;29.25;;;13.95;;
36963;SDS011;22878;48.616;35.326;2022-08-19T04:21:39;24.72;;;14.70;;
36963;SDS011;22878;48.616;35.326;2022-08-19T04:24:06;27.32;;;13.72;;
36963;SDS011;22878;48.616;35.326;2022-08-19T04:26:33;23.18;;;14.45;;
36963;SDS011;22878;48.616;35.326;2022-08-19T04:29:01;20.17;;;13.40;;
36963;SDS011;22878;48.616;35.326;2022-08-19T04:31:30;22.90;;;13.58;;
36963;SDS011;22878;48.616;35.326;2022-08-19T04:33:58;20.57;;;13.30;;
36963;SDS011;22878;48.616;35.326;2022-08-19T04:36:27;25.08;;;13.95;;
36963;SDS011;22878;48.616;35.326;2022-08-19T04:38:55;22.73;;;14.35;;
36963;SDS011;22878;48.616;35.326;2022-08-19T04:41:22;26.97;;;13.95;;
36963;SDS011;22878;48.616;35.326;2022-08-19T04:44:07;19.65;;;13.53;;
36963;SDS011;22878;48.616;35.326;2022-08-19T04:46:33;23.50;;;14.23;;
36963;SDS011;22878;48.616;35.326;2022-08-19T04:49:00;25.10;;;14.45;;
36963;SDS011;22878;48.616;35.326;2022-08-19T04:51:27;29.80;;;13.83;;
36963;SDS011;22878;48.616;35.326;2022-08-19T04:53:53;23.02;;;13.60;;
36963;SDS011;22878;48.616;35.326;2022-08-19T04:56:19;22.95;;;13.78;;
36963;SDS011;22878;48.616;35.326;2022-08-19T04:58:47;23.98;;;13.75;;
36963;SDS011;22878;48.616;35.326;2022-08-19T05:03:48;18.65;;;12.37;;
36963;SDS011;22878;48.616;35.326;2022-08-19T05:06:15;23.32;;;12.85;;
36963;SDS011;22878;48.616;35.326;2022-08-19T05:08:43;24.37;;;12.68;;
36963;SDS011;22878;48.616;35.326;2022-08-19T05:13:50;26.12;;;14.80;;
36963;SDS011;22878;48.616;35.326;2022-08-19T05:16:18;26.17;;;14.60;;
36963;SDS011;22878;48.616;35.326;2022-08-19T05:18:45;26.25;;;14.75;;
36963;SDS011;22878;48.616;35.326;2022-08-19T05:21:30;23.77;;;14.50;;
36963;SDS011;22878;48.616;35.326;2022-08-19T05:24:14;26.87;;;14.83;;
36963;SDS011;22878;48.616;35.326;2022-08-19T05:26:42;22.35;;;13.95;;
36963;SDS011;22878;48.616;35.326;2022-08-19T05:29:11;23.73;;;15.00;;
36963;SDS011;22878;48.616;35.326;2022-08-19T05:31:37;22.60;;;14.33;;
36963;SDS011;22878;48.616;35.326;2022-08-19T05:34:03;27.02;;;15.38;;
36963;SDS011;22878;48.616;35.326;2022-08-19T05:39:00;29.12;;;16.35;;
36963;SDS011;22878;48.616;35.326;2022-08-19T05:41:27;31.73;;;16.05;;
36963;SDS011;22878;48.616;35.326;2022-08-19T05:43:55;30.57;;;15.90;;
36963;SDS011;22878;48.616;35.326;2022-08-19T05:46:22;27.27;;;15.95;;
36963;SDS011;22878;48.616;35.326;2022-08-19T05:48:48;32.88;;;17.62;;
36963;SDS011;22878;48.616;35.326;2022-08-19T05:51:14;26.97;;;16.65;;
36963;SDS011;22878;48.616;35.326;2022-08-19T05:53:41;38.58;;;17.27;;
36963;SDS011;22878;48.616;35.326;2022-08-19T05:56:10;37.85;;;15.58;;
36963;SDS011;22878;48.616;35.326;2022-08-19T05:58:37;26.77;;;14.45;;
36963;SDS011;22878;48.616;35.326;2022-08-19T06:01:04;23.95;;;13.58;;
36963;SDS011;22878;48.616;35.326;2022-08-19T06:03:35;20.43;;;14.05;;
36963;SDS011;22878;48.616;35.326;2022-08-19T06:06:02;24.32;;;14.45;;
36963;SDS011;22878;48.616;35.326;2022-08-19T06:08:29;20.45;;;13.45;;
36963;SDS011;22878;48.616;35.326;2022-08-19T06:10:55;27.50;;;14.07;;
36963;SDS011;22878;48.616;35.326;2022-08-19T06:13:22;22.42;;;12.30;;
36963;SDS011;22878;48.616;35.326;2022-08-19T06:15:48;22.82;;;12.47;;
36963;SDS011;22878;48.616;35.326;2022-08-19T06:18:15;19.10;;;12.82;;
36963;SDS011;22878;48.616;35.326;2022-08-19T06:20:41;20.85;;;11.85;;
36963;SDS011;22878;48.616;35.326;2022-08-19T06:23:07;24.32;;;13.43;;
36963;SDS011;22878;48.616;35.326;2022-08-19T06:25:34;19.17;;;12.00;;
36963;SDS011;22878;48.616;35.326;2022-08-19T06:28:01;17.23;;;11.60;;
36963;SDS011;22878;48.616;35.326;2022-08-19T06:30:27;21.45;;;11.38;;
36963;SDS011;22878;48.616;35.326;2022-08-19T06:32:53;16.90;;;12.20;;
36963;SDS011;22878;48.616;35.326;2022-08-19T06:35:19;16.75;;;12.10;;
36963;SDS011;22878;48.616;35.326;2022-08-19T06:37:45;14.40;;;10.63;;
36963;SDS011;22878;48.616;35.326;2022-08-19T06:40:10;15.48;;;11.25;;
36963;SDS011;22878;48.616;35.326;2022-08-19T06:42:37;15.75;;;11.33;;
36963;SDS011;22878;48.616;35.326;2022-08-19T06:45:04;18.60;;;10.72;;
36963;SDS011;22878;48.616;35.326;2022-08-19T06:47:31;14.30;;;10.93;;
36963;SDS011;22878;48.616;35.326;2022-08-19T06:50:00;15.15;;;10.78;;
36963;SDS011;22878;48.616;35.326;2022-08-19T06:52:31;18.77;;;11.03;;
36963;SDS011;22878;48.616;35.326;2022-08-19T06:57:25;12.73;;;11.20;;
36963;SDS011;22878;48.616;35.326;2022-08-19T06:59:51;13.93;;;10.82;;
36963;SDS011;22878;48.616;35.326;2022-08-19T07:02:17;15.50;;;12.25;;
36963;SDS011;22878;48.616;35.326;2022-08-19T07:04:44;15.25;;;11.50;;
36963;SDS011;22878;48.616;35.326;2022-08-19T07:07:13;14.98;;;11.00;;
36963;SDS011;22878;48.616;35.326;2022-08-19T07:09:42;14.15;;;11.22;;
36963;SDS011;22878;48.616;35.326;2022-08-19T07:12:10;17.85;;;11.73;;
36963;SDS011;22878;48.616;35.326;2022-08-19T07:14:39;20.52;;;11.22;;
36963;SDS011;22878;48.616;35.326;2022-08-19T07:17:08;13.90;;;11.38;;
36963;SDS011;22878;48.616;35.326;2022-08-19T07:19:34;14.18;;;10.58;;
36963;SDS011;22878;48.616;35.326;2022-08-19T07:22:01;15.32;;;11.53;;
36963;SDS011;22878;48.616;35.326;2022-08-19T07:24:28;14.10;;;11.28;;
36963;SDS011;22878;48.616;35.326;2022-08-19T07:26:55;15.30;;;11.57;;
36963;SDS011;22878;48.616;35.326;2022-08-19T07:29:24;16.02;;;11.40;;
36963;SDS011;22878;48.616;35.326;2022-08-19T07:31:50;18.60;;;11.93;;
36963;SDS011;22878;48.616;35.326;2022-08-19T07:34:17;16.15;;;11.68;;
36963;SDS011;22878;48.616;35.326;2022-08-19T07:36:43;22.17;;;12.35;;
36963;SDS011;22878;48.616;35.326;2022-08-19T07:39:17;18.40;;;12.07;;
36963;SDS011;22878;48.616;35.326;2022-08-19T07:41:45;17.07;;;11.70;;
36963;SDS011;22878;48.616;35.326;2022-08-19T07:44:12;15.63;;;11.63;;
36963;SDS011;22878;48.616;35.326;2022-08-19T07:46:40;16.55;;;11.80;;
36963;SDS011;22878;48.616;35.326;2022-08-19T07:49:09;18.97;;;12.93;;
36963;SDS011;22878;48.616;35.326;2022-08-19T07:51:38;20.17;;;11.70;;
36963;SDS011;22878;48.616;35.326;2022-08-19T07:54:04;16.55;;;11.48;;
36963;SDS011;22878;48.616;35.326;2022-08-19T07:56:29;15.38;;;11.20;;
36963;SDS011;22878;48.616;35.326;2022-08-19T07:58:55;16.52;;;11.12;;
36963;SDS011;22878;48.616;35.326;2022-08-19T08:01:23;16.35;;;11.15;;
36963;SDS011;22878;48.616;35.326;2022-08-19T08:03:50;14.95;;;11.03;;
36963;SDS011;22878;48.616;35.326;2022-08-19T08:06:35;16.67;;;11.80;;
36963;SDS011;22878;48.616;35.326;2022-08-19T08:09:21;16.10;;;10.93;;
36963;SDS011;22878;48.616;35.326;2022-08-19T08:11:56;15.35;;;11.33;;
36963;SDS011;22878;48.616;35.326;2022-08-19T08:14:29;17.07;;;11.55;;
36963;SDS011;22878;48.616;35.326;2022-08-19T08:16:55;16.42;;;12.03;;
36963;SDS011;22878;48.616;35.326;2022-08-19T08:19:22;17.12;;;11.38;;
36963;SDS011;22878;48.616;35.326;2022-08-19T08:21:49;13.32;;;11.28;;
36963;SDS011;22878;48.616;35.326;2022-08-19T08:24:16;15.20;;;11.22;;
36963;SDS011;22878;48.616;35.326;2022-08-19T08:26:42;15.43;;;11.28;;
36963;SDS011;22878;48.616;35.326;2022-08-19T08:29:10;14.63;;;11.83;;
36963;SDS011;22878;48.616;35.326;2022-08-19T08:31:39;12.35;;;10.80;;
36963;SDS011;22878;48.616;35.326;2022-08-19T08:34:06;13.65;;;11.50;;
36963;SDS011;22878;48.616;35.326;2022-08-19T08:36:32;18.35;;;11.45;;
36963;SDS011;22878;48.616;35.326;2022-08-19T08:39:00;17.15;;;11.53;;
36963;SDS011;22878;48.616;35.326;2022-08-19T08:41:42;12.20;;;10.10;;
36963;SDS011;22878;48.616;35.326;2022-08-19T08:44:15;15.10;;;10.85;;
36963;SDS011;22878;48.616;35.326;2022-08-19T08:46:47;16.52;;;11.38;;
36963;SDS011;22878;48.616;35.326;2022-08-19T08:52:06;16.10;;;11.12;;
36963;SDS011;22878;48.616;35.326;2022-08-19T08:54:42;15.23;;;10.43;;
36963;SDS011;22878;48.616;35.326;2022-08-19T08:57:13;13.40;;;10.20;;
36963;SDS011;22878;48.616;35.326;2022-08-19T08:59:41;14.10;;;10.65;;
36963;SDS011;22878;48.616;35.326;2022-08-19T09:02:08;11.22;;;9.70;;
36963;SDS011;22878;48.616;35.326;2022-08-19T09:04:37;16.70;;;9.63;;
36963;SDS011;22878;48.616;35.326;2022-08-19T09:09:51;12.73;;;9.83;;
36963;SDS011;22878;48.616;35.326;2022-08-19T09:14:54;11.05;;;9.95;;
36963;SDS011;22878;48.616;35.326;2022-08-19T09:17:24;12.75;;;9.25;;
36963;SDS011;22878;48.616;35.326;2022-08-19T09:19:54;13.15;;;10.50;;
36963;SDS011;22878;48.616;35.326;2022-08-19T09:22:26;11.28;;;9.68;;
36963;SDS011;22878;48.616;35.326;2022-08-19T09:24:52;11.83;;;9.70;;
36963;SDS011;22878;48.616;35.326;2022-08-19T09:27:19;10.28;;;9.23;;
36963;SDS011;22878;48.616;35.326;2022-08-19T09:29:46;17.12;;;9.43;;
36963;SDS011;22878;48.616;35.326;2022-08-19T09:32:13;11.63;;;9.60;;
36963;SDS011;22878;48.616;35.326;2022-08-19T09:34:40;13.78;;;9.93;;
36963;SDS011;22878;48.616;35.326;2022-08-19T09:37:06;13.32;;;9.58;;
36963;SDS011;22878;48.616;35.326;2022-08-19T09:39:32;13.65;;;9.75;;
36963;SDS011;22878;48.616;35.326;2022-08-19T09:41:58;14.53;;;9.45;;
36963;SDS011;22878;48.616;35.326;2022-08-19T09:44:23;14.20;;;9.68;;
36963;SDS011;22878;48.616;35.326;2022-08-19T09:46:49;16.80;;;9.38;;
36963;SDS011;22878;48.616;35.326;2022-08-19T09:49:17;17.82;;;10.08;;
36963;SDS011;22878;48.616;35.326;2022-08-19T09:51:43;15.13;;;9.38;;
36963;SDS011;22878;48.616;35.326;2022-08-19T09:54:09;18.60;;;9.50;;
36963;SDS011;22878;48.616;35.326;2022-08-19T09:56:35;14.70;;;9.33;;
36963;SDS011;22878;48.616;35.326;2022-08-19T09:59:02;17.30;;;9.13;;
36963;SDS011;22878;48.616;35.326;2022-08-19T10:01:29;17.20;;;9.98;;
36963;SDS011;22878;48.616;35.326;2022-08-19T10:03:56;18.00;;;9.93;;
36963;SDS011;22878;48.616;35.326;2022-08-19T10:06:24;19.02;;;9.83;;
36963;SDS011;22878;48.616;35.326;2022-08-19T10:08:51;17.35;;;9.70;;
36963;SDS011;22878;48.616;35.326;2022-08-19T10:11:18;13.38;;;9.68;;
36963;SDS011;22878;48.616;35.326;2022-08-19T10:13:44;14.00;;;9.00;;
36963;SDS011;22878;48.616;35.326;2022-08-19T10:16:11;14.53;;;8.83;;
36963;SDS011;22878;48.616;35.326;2022-08-19T10:18:39;15.30;;;9.13;;
36963;SDS011;22878;48.616;35.326;2022-08-19T10:21:21;13.65;;;9.15;;
36963;SDS011;22878;48.616;35.326;2022-08-19T10:23:49;15.72;;;8.65;;
36963;SDS011;22878;48.616;35.326;2022-08-19T10:26:18;27.15;;;9.83;;
36963;SDS011;22878;48.616;35.326;2022-08-19T10:28:45;14.80;;;9.18;;
36963;SDS011;22878;48.616;35.326;2022-08-19T10:31:19;12.13;;;8.60;;
36963;SDS011;22878;48.616;35.326;2022-08-19T10:33:48;15.55;;;8.95;;
36963;SDS011;22878;48.616;35.326;2022-08-19T10:38:43;13.28;;;8.65;;
36963;SDS011;22878;48.616;35.326;2022-08-19T10:41:18;14.95;;;8.03;;
36963;SDS011;22878;48.616;35.326;2022-08-19T10:43:47;11.73;;;8.38;;
36963;SDS011;22878;48.616;35.326;2022-08-19T10:46:13;15.65;;;8.40;;
36963;SDS011;22878;48.616;35.326;2022-08-19T10:48:41;15.83;;;8.73;;
36963;SDS011;22878;48.616;35.326;2022-08-19T10:51:08;10.98;;;8.10;;
36963;SDS011;22878;48.616;35.326;2022-08-19T10:53:53;14.15;;;8.13;;
36963;SDS011;22878;48.616;35.326;2022-08-19T10:56:19;16.10;;;8.83;;
36963;SDS011;22878;48.616;35.326;2022-08-19T10:59:03;19.15;;;8.80;;
36963;SDS011;22878;48.616;35.326;2022-08-19T11:01:30;13.15;;;8.55;;
36963;SDS011;22878;48.616;35.326;2022-08-19T11:03:59;13.60;;;7.90;;
36963;SDS011;22878;48.616;35.326;2022-08-19T11:06:26;13.90;;;8.25;;
36963;SDS011;22878;48.616;35.326;2022-08-19T11:08:52;11.95;;;7.75;;
36963;SDS011;22878;48.616;35.326;2022-08-19T11:11:19;11.10;;;7.83;;
36963;SDS011;22878;48.616;35.326;2022-08-19T11:13:46;11.05;;;7.90;;
36963;SDS011;22878;48.616;35.326;2022-08-19T11:16:14;12.00;;;8.40;;
36963;SDS011;22878;48.616;35.326;2022-08-19T11:18:52;13.00;;;8.45;;
36963;SDS011;22878;48.616;35.326;2022-08-19T11:23:47;12.58;;;8.15;;
36963;SDS011;22878;48.616;35.326;2022-08-19T11:26:14;13.05;;;8.03;;
36963;SDS011;22878;48.616;35.326;2022-08-19T11:28:40;10.55;;;7.97;;
36963;SDS011;22878;48.616;35.326;2022-08-19T11:33:39;13.65;;;7.95;;
36963;SDS011;22878;48.616;35.326;2022-08-19T11:36:05;13.45;;;8.65;;
36963;SDS011;22878;48.616;35.326;2022-08-19T11:38:31;13.90;;;8.08;;
36963;SDS011;22878;48.616;35.326;2022-08-19T11:40:58;16.07;;;8.63;;
36963;SDS011;22878;48.616;35.326;2022-08-19T11:43:26;17.12;;;8.50;;
36963;SDS011;22878;48.616;35.326;2022-08-19T11:45:53;19.48;;;8.25;;
36963;SDS011;22878;48.616;35.326;2022-08-19T11:48:20;18.42;;;8.20;;
36963;SDS011;22878;48.616;35.326;2022-08-19T11:50:50;21.87;;;8.03;;
36963;SDS011;22878;48.616;35.326;2022-08-19T11:53:18;43.98;;;10.08;;
36963;SDS011;22878;48.616;35.326;2022-08-19T11:55:45;34.88;;;9.68;;
36963;SDS011;22878;48.616;35.326;2022-08-19T11:58:13;35.00;;;9.55;;
36963;SDS011;22878;48.616;35.326;2022-08-19T12:00:40;24.27;;;7.75;;
36963;SDS011;22878;48.616;35.326;2022-08-19T12:03:10;24.20;;;8.13;;
36963;SDS011;22878;48.616;35.326;2022-08-19T12:05:37;27.80;;;8.85;;
36963;SDS011;22878;48.616;35.326;2022-08-19T12:08:04;29.92;;;8.05;;
36963;SDS011;22878;48.616;35.326;2022-08-19T12:10:32;32.60;;;7.40;;
36963;SDS011;22878;48.616;35.326;2022-08-19T12:12:58;38.20;;;8.78;;
36963;SDS011;22878;48.616;35.326;2022-08-19T12:15:25;22.50;;;9.48;;
36963;SDS011;22878;48.616;35.326;2022-08-19T12:17:53;31.00;;;9.08;;
36963;SDS011;22878;48.616;35.326;2022-08-19T12:20:21;55.65;;;9.35;;
36963;SDS011;22878;48.616;35.326;2022-08-19T12:22:47;147.05;;;12.37;;
36963;SDS011;22878;48.616;35.326;2022-08-19T12:25:13;309.50;;;16.90;;
36963;SDS011;22878;48.616;35.326;2022-08-19T12:27:39;207.95;;;14.10;;
36963;SDS011;22878;48.616;35.326;2022-08-19T12:30:05;85.50;;;11.50;;
36963;SDS011;22878;48.616;35.326;2022-08-19T12:32:35;55.98;;;10.45;;
36963;SDS011;22878;48.616;35.326;2022-08-19T12:35:03;375.48;;;20.40;;
36963;SDS011;22878;48.616;35.326;2022-08-19T12:37:34;1016.72;;;42.85;;
36963;SDS011;22878;48.616;35.326;2022-08-19T12:40:06;26.27;;;10.25;;
36963;SDS011;22878;48.616;35.326;2022-08-19T12:42:56;348.30;;;20.65;;
36963;SDS011;22878;48.616;35.326;2022-08-19T12:45:26;44.15;;;13.30;;
36963;SDS011;22878;48.616;35.326;2022-08-19T12:48:02;43.25;;;12.73;;
36963;SDS011;22878;48.616;35.326;2022-08-19T12:50:30;27.70;;;12.63;;
36963;SDS011;22878;48.616;35.326;2022-08-19T12:52:56;34.73;;;13.32;;
36963;SDS011;22878;48.616;35.326;2022-08-19T12:55:24;37.00;;;14.15;;
36963;SDS011;22878;48.616;35.326;2022-08-19T12:57:50;56.77;;;15.78;;
36963;SDS011;22878;48.616;35.326;2022-08-19T13:00:17;68.65;;;17.40;;
36963;SDS011;22878;48.616;35.326;2022-08-19T13:02:47;520.57;;;32.40;;
36963;SDS011;22878;48.616;35.326;2022-08-19T13:05:19;35.92;;;17.27;;
36963;SDS011;22878;48.616;35.326;2022-08-19T13:07:52;84.03;;;19.02;;
36963;SDS011;22878;48.616;35.326;2022-08-19T13:10:21;35.75;;;17.30;;
36963;SDS011;22878;48.616;35.326;2022-08-19T13:12:49;45.10;;;16.65;;
36963;SDS011;22878;48.616;35.326;2022-08-19T13:15:16;31.10;;;15.32;;
36963;SDS011;22878;48.616;35.326;2022-08-19T13:17:45;30.48;;;15.78;;
36963;SDS011;22878;48.616;35.326;2022-08-19T13:20:15;27.65;;;14.65;;
36963;SDS011;22878;48.616;35.326;2022-08-19T13:22:42;33.18;;;13.93;;
36963;SDS011;22878;48.616;35.326;2022-08-19T13:25:09;25.88;;;13.68;;
36963;SDS011;22878;48.616;35.326;2022-08-19T13:27:36;23.95;;;12.95;;
36963;SDS011;22878;48.616;35.326;2022-08-19T13:30:02;26.25;;;13.93;;
36963;SDS011;22878;48.616;35.326;2022-08-19T13:32:48;26.62;;;13.38;;
36963;SDS011;22878;48.616;35.326;2022-08-19T13:35:32;26.62;;;13.98;;
36963;SDS011;22878;48.616;35.326;2022-08-19T13:37:58;29.80;;;14.03;;
36963;SDS011;22878;48.616;35.326;2022-08-19T13:40:26;26.35;;;13.20;;
36963;SDS011;22878;48.616;35.326;2022-08-19T13:42:53;28.77;;;14.50;;
36963;SDS011;22878;48.616;35.326;2022-08-19T13:45:21;35.03;;;15.45;;
36963;SDS011;22878;48.616;35.326;2022-08-19T13:47:50;30.17;;;15.50;;
36963;SDS011;22878;48.616;35.326;2022-08-19T13:50:19;30.88;;;15.23;;
36963;SDS011;22878;48.616;35.326;2022-08-19T13:52:47;36.13;;;16.77;;
36963;SDS011;22878;48.616;35.326;2022-08-19T13:55:14;32.85;;;16.32;;
36963;SDS011;22878;48.616;35.326;2022-08-19T13:57:41;42.00;;;16.80;;
36963;SDS011;22878;48.616;35.326;2022-08-19T14:00:09;43.50;;;17.67;;
36963;SDS011;22878;48.616;35.326;2022-08-19T14:02:37;42.03;;;17.23;;
36963;SDS011;22878;48.616;35.326;2022-08-19T14:05:04;43.58;;;18.30;;
36963;SDS011;22878;48.616;35.326;2022-08-19T14:07:31;253.22;;;24.55;;
36963;SDS011;22878;48.616;35.326;2022-08-19T14:09:57;503.05;;;33.60;;
36963;SDS011;22878;48.616;35.326;2022-08-19T14:12:22;296.40;;;25.68;;
36963;SDS011;22878;48.616;35.326;2022-08-19T14:14:48;146.77;;;21.30;;
36963;SDS011;22878;48.616;35.326;2022-08-19T14:17:14;46.50;;;18.95;;
36963;SDS011;22878;48.616;35.326;2022-08-19T14:19:41;41.60;;;18.37;;
36963;SDS011;22878;48.616;35.326;2022-08-19T14:22:07;49.93;;;18.55;;
36963;SDS011;22878;48.616;35.326;2022-08-19T14:24:33;50.23;;;18.32;;
36963;SDS011;22878;48.616;35.326;2022-08-19T14:26:59;40.67;;;18.23;;
36963;SDS011;22878;48.616;35.326;2022-08-19T14:29:25;200.95;;;26.68;;
36963;SDS011;22878;48.616;35.326;2022-08-19T14:31:54;45.60;;;19.32;;
36963;SDS011;22878;48.616;35.326;2022-08-19T14:34:22;42.62;;;17.73;;
36963;SDS011;22878;48.616;35.326;2022-08-19T14:36:48;40.45;;;18.00;;
36963;SDS011;22878;48.616;35.326;2022-08-19T14:39:14;37.35;;;19.15;;
36963;SDS011;22878;48.616;35.326;2022-08-19T14:41:40;51.25;;;20.48;;
36963;SDS011;22878;48.616;35.326;2022-08-19T14:44:08;51.75;;;20.85;;
36963;SDS011;22878;48.616;35.326;2022-08-19T14:46:36;49.58;;;21.20;;
36963;SDS011;22878;48.616;35.326;2022-08-19T14:49:01;42.62;;;20.65;;